sensor_id;sensor_type;location;lat;lon;timestamp;P1;durP1;ratioP1;P2;durP2;ratioP2
35558;SDS011;21661;50.794;-1.066;2023-05-10T00:00:08;12.75;;;4.72;;
35558;SDS011;21661;50.794;-1.066;2023-05-10T00:02:34;14.13;;;4.65;;
35558;SDS011;21661;50.794;-1.066;2023-05-10T00:05:00;13.98;;;5.30;;
35558;SDS011;21661;50.794;-1.066;2023-05-10T00:07:26;19.63;;;5.88;;
35558;SDS011;21661;50.794;-1.066;2023-05-10T00:09:51;13.82;;;6.13;;
35558;SDS011;21661;50.794;-1.066;2023-05-10T00:12:17;18.50;;;7.57;;
35558;SDS011;21661;50.794;-1.066;2023-05-10T00:14:43;17.85;;;7.30;;
35558;SDS011;21661;50.794;-1.066;2023-05-10T00:17:08;18.45;;;7.88;;
35558;SDS011;21661;50.794;-1.066;2023-05-10T00:19:34;22.17;;;8.07;;
35558;SDS011;21661;50.794;-1.066;2023-05-10T00:21:59;27.25;;;9.60;;
35558;SDS011;21661;50.794;-1.066;2023-05-10T00:24:25;22.10;;;9.27;;
35558;SDS011;21661;50.794;-1.066;2023-05-10T00:26:50;24.92;;;11.25;;
35558;SDS011;21661;50.794;-1.066;2023-05-10T00:29:16;32.42;;;12.70;;
35558;SDS011;21661;50.794;-1.066;2023-05-10T00:31:42;30.55;;;12.55;;
35558;SDS011;21661;50.794;-1.066;2023-05-10T00:34:07;30.42;;;11.70;;
35558;SDS011;21661;50.794;-1.066;2023-05-10T00:36:33;39.17;;;14.35;;
35558;SDS011;21661;50.794;-1.066;2023-05-10T00:38:58;36.40;;;15.27;;
35558;SDS011;21661;50.794;-1.066;2023-05-10T00:41:24;38.63;;;15.73;;
35558;SDS011;21661;50.794;-1.066;2023-05-10T00:43:50;39.85;;;15.48;;
35558;SDS011;21661;50.794;-1.066;2023-05-10T00:46:15;42.92;;;14.88;;
35558;SDS011;21661;50.794;-1.066;2023-05-10T00:48:41;36.45;;;13.55;;
35558;SDS011;21661;50.794;-1.066;2023-05-10T00:51:08;38.35;;;13.43;;
35558;SDS011;21661;50.794;-1.066;2023-05-10T00:53:34;37.20;;;15.57;;
35558;SDS011;21661;50.794;-1.066;2023-05-10T00:56:00;28.63;;;11.68;;
35558;SDS011;21661;50.794;-1.066;2023-05-10T00:58:26;31.45;;;12.13;;
35558;SDS011;21661;50.794;-1.066;2023-05-10T01:00:54;31.95;;;13.70;;
35558;SDS011;21661;50.794;-1.066;2023-05-10T01:03:21;34.88;;;14.25;;
35558;SDS011;21661;50.794;-1.066;2023-05-10T01:05:46;32.17;;;13.77;;
35558;SDS011;21661;50.794;-1.066;2023-05-10T01:08:12;33.13;;;12.73;;
35558;SDS011;21661;50.794;-1.066;2023-05-10T01:10:38;35.72;;;13.70;;
35558;SDS011;21661;50.794;-1.066;2023-05-10T01:13:03;34.58;;;13.85;;
35558;SDS011;21661;50.794;-1.066;2023-05-10T01:15:29;37.13;;;14.10;;
35558;SDS011;21661;50.794;-1.066;2023-05-10T01:17:56;46.00;;;13.23;;
35558;SDS011;21661;50.794;-1.066;2023-05-10T01:20:22;30.33;;;12.90;;
35558;SDS011;21661;50.794;-1.066;2023-05-10T01:31:03;24.42;;;9.93;;
35558;SDS011;21661;50.794;-1.066;2023-05-10T01:33:39;23.42;;;9.48;;
35558;SDS011;21661;50.794;-1.066;2023-05-10T01:36:32;21.65;;;9.88;;
35558;SDS011;21661;50.794;-1.066;2023-05-10T01:41:51;27.40;;;9.70;;
35558;SDS011;21661;50.794;-1.066;2023-05-10T01:47:01;22.20;;;9.52;;
35558;SDS011;21661;50.794;-1.066;2023-05-10T01:49:45;22.60;;;9.82;;
35558;SDS011;21661;50.794;-1.066;2023-05-10T01:52:15;23.52;;;8.93;;
35558;SDS011;21661;50.794;-1.066;2023-05-10T01:55:00;26.27;;;10.02;;
35558;SDS011;21661;50.794;-1.066;2023-05-10T01:57:40;16.85;;;9.43;;
35558;SDS011;21661;50.794;-1.066;2023-05-10T02:00:08;25.33;;;9.73;;
35558;SDS011;21661;50.794;-1.066;2023-05-10T02:02:37;24.50;;;9.32;;
35558;SDS011;21661;50.794;-1.066;2023-05-10T02:05:07;24.33;;;10.18;;
35558;SDS011;21661;50.794;-1.066;2023-05-10T02:07:34;25.33;;;12.52;;
35558;SDS011;21661;50.794;-1.066;2023-05-10T02:10:01;29.95;;;11.85;;
35558;SDS011;21661;50.794;-1.066;2023-05-10T02:12:29;27.77;;;11.73;;
35558;SDS011;21661;50.794;-1.066;2023-05-10T02:14:57;24.08;;;9.70;;
35558;SDS011;21661;50.794;-1.066;2023-05-10T02:17:27;20.33;;;9.68;;
35558;SDS011;21661;50.794;-1.066;2023-05-10T02:19:54;23.70;;;9.25;;
35558;SDS011;21661;50.794;-1.066;2023-05-10T02:22:21;20.80;;;7.82;;
35558;SDS011;21661;50.794;-1.066;2023-05-10T02:24:48;15.68;;;7.35;;
35558;SDS011;21661;50.794;-1.066;2023-05-10T02:27:15;21.33;;;7.80;;
35558;SDS011;21661;50.794;-1.066;2023-05-10T02:29:42;25.17;;;8.23;;
35558;SDS011;21661;50.794;-1.066;2023-05-10T02:32:08;21.75;;;7.60;;
35558;SDS011;21661;50.794;-1.066;2023-05-10T02:34:35;15.65;;;7.60;;
35558;SDS011;21661;50.794;-1.066;2023-05-10T02:37:01;25.90;;;8.50;;
35558;SDS011;21661;50.794;-1.066;2023-05-10T02:39:28;21.27;;;7.10;;
35558;SDS011;21661;50.794;-1.066;2023-05-10T02:41:56;18.10;;;7.95;;
35558;SDS011;21661;50.794;-1.066;2023-05-10T02:44:23;20.75;;;7.55;;
35558;SDS011;21661;50.794;-1.066;2023-05-10T02:46:51;18.63;;;6.88;;
35558;SDS011;21661;50.794;-1.066;2023-05-10T02:49:17;16.50;;;7.10;;
35558;SDS011;21661;50.794;-1.066;2023-05-10T02:51:54;18.25;;;7.05;;
35558;SDS011;21661;50.794;-1.066;2023-05-10T02:54:27;14.95;;;6.63;;
35558;SDS011;21661;50.794;-1.066;2023-05-10T02:56:57;21.42;;;6.20;;
35558;SDS011;21661;50.794;-1.066;2023-05-10T02:59:25;17.48;;;6.57;;
35558;SDS011;21661;50.794;-1.066;2023-05-10T03:01:51;19.80;;;6.28;;
35558;SDS011;21661;50.794;-1.066;2023-05-10T03:04:17;20.45;;;6.65;;
35558;SDS011;21661;50.794;-1.066;2023-05-10T03:06:43;18.75;;;6.53;;
35558;SDS011;21661;50.794;-1.066;2023-05-10T03:09:09;16.58;;;6.85;;
35558;SDS011;21661;50.794;-1.066;2023-05-10T03:14:22;19.00;;;7.35;;
35558;SDS011;21661;50.794;-1.066;2023-05-10T03:17:00;20.50;;;6.32;;
35558;SDS011;21661;50.794;-1.066;2023-05-10T03:19:32;18.15;;;7.30;;
35558;SDS011;21661;50.794;-1.066;2023-05-10T03:22:10;20.27;;;6.75;;
35558;SDS011;21661;50.794;-1.066;2023-05-10T03:24:37;17.35;;;6.18;;
35558;SDS011;21661;50.794;-1.066;2023-05-10T03:27:06;19.60;;;7.53;;
35558;SDS011;21661;50.794;-1.066;2023-05-10T03:29:32;17.23;;;6.28;;
35558;SDS011;21661;50.794;-1.066;2023-05-10T03:31:58;18.17;;;6.53;;
35558;SDS011;21661;50.794;-1.066;2023-05-10T03:34:25;16.40;;;5.63;;
35558;SDS011;21661;50.794;-1.066;2023-05-10T03:36:51;19.48;;;5.65;;
35558;SDS011;21661;50.794;-1.066;2023-05-10T03:39:16;21.67;;;5.70;;
35558;SDS011;21661;50.794;-1.066;2023-05-10T03:41:42;19.45;;;6.30;;
35558;SDS011;21661;50.794;-1.066;2023-05-10T03:44:08;16.35;;;6.07;;
35558;SDS011;21661;50.794;-1.066;2023-05-10T03:46:33;15.18;;;5.32;;
35558;SDS011;21661;50.794;-1.066;2023-05-10T03:48:59;19.65;;;5.57;;
35558;SDS011;21661;50.794;-1.066;2023-05-10T03:51:24;12.32;;;5.53;;
35558;SDS011;21661;50.794;-1.066;2023-05-10T03:53:53;18.17;;;5.30;;
35558;SDS011;21661;50.794;-1.066;2023-05-10T03:56:19;14.60;;;6.32;;
35558;SDS011;21661;50.794;-1.066;2023-05-10T03:58:45;15.52;;;5.53;;
35558;SDS011;21661;50.794;-1.066;2023-05-10T04:01:11;16.98;;;5.47;;
35558;SDS011;21661;50.794;-1.066;2023-05-10T04:03:37;19.83;;;5.30;;
35558;SDS011;21661;50.794;-1.066;2023-05-10T04:06:03;18.80;;;5.72;;
35558;SDS011;21661;50.794;-1.066;2023-05-10T04:08:29;20.73;;;5.75;;
35558;SDS011;21661;50.794;-1.066;2023-05-10T04:11:04;22.70;;;6.20;;
35558;SDS011;21661;50.794;-1.066;2023-05-10T04:13:33;23.77;;;5.70;;
35558;SDS011;21661;50.794;-1.066;2023-05-10T04:15:59;25.13;;;5.78;;
35558;SDS011;21661;50.794;-1.066;2023-05-10T04:18:25;21.35;;;6.43;;
35558;SDS011;21661;50.794;-1.066;2023-05-10T04:20:51;22.52;;;6.75;;
35558;SDS011;21661;50.794;-1.066;2023-05-10T04:23:16;22.55;;;5.07;;
35558;SDS011;21661;50.794;-1.066;2023-05-10T04:25:42;23.40;;;6.13;;
35558;SDS011;21661;50.794;-1.066;2023-05-10T04:28:08;25.95;;;7.25;;
35558;SDS011;21661;50.794;-1.066;2023-05-10T04:30:33;44.80;;;12.85;;
35558;SDS011;21661;50.794;-1.066;2023-05-10T04:32:59;43.38;;;14.05;;
35558;SDS011;21661;50.794;-1.066;2023-05-10T04:35:26;44.42;;;13.35;;
35558;SDS011;21661;50.794;-1.066;2023-05-10T04:37:53;39.67;;;12.35;;
35558;SDS011;21661;50.794;-1.066;2023-05-10T04:40:18;41.25;;;10.38;;
35558;SDS011;21661;50.794;-1.066;2023-05-10T04:42:44;36.95;;;10.45;;
35558;SDS011;21661;50.794;-1.066;2023-05-10T04:45:10;37.90;;;10.63;;
35558;SDS011;21661;50.794;-1.066;2023-05-10T04:47:36;39.40;;;10.52;;
35558;SDS011;21661;50.794;-1.066;2023-05-10T04:50:02;26.48;;;8.77;;
35558;SDS011;21661;50.794;-1.066;2023-05-10T04:52:31;21.70;;;7.07;;
35558;SDS011;21661;50.794;-1.066;2023-05-10T04:54:57;21.67;;;6.18;;
35558;SDS011;21661;50.794;-1.066;2023-05-10T04:57:22;27.23;;;6.28;;
35558;SDS011;21661;50.794;-1.066;2023-05-10T04:59:48;27.48;;;5.63;;
35558;SDS011;21661;50.794;-1.066;2023-05-10T05:02:13;25.45;;;6.28;;
35558;SDS011;21661;50.794;-1.066;2023-05-10T05:04:39;23.05;;;4.88;;
35558;SDS011;21661;50.794;-1.066;2023-05-10T05:07:05;22.95;;;6.10;;
35558;SDS011;21661;50.794;-1.066;2023-05-10T05:09:30;19.70;;;5.00;;
35558;SDS011;21661;50.794;-1.066;2023-05-10T05:11:57;25.30;;;5.18;;
35558;SDS011;21661;50.794;-1.066;2023-05-10T05:14:22;20.05;;;5.57;;
35558;SDS011;21661;50.794;-1.066;2023-05-10T05:16:50;22.17;;;6.40;;
35558;SDS011;21661;50.794;-1.066;2023-05-10T05:19:16;21.60;;;6.22;;
35558;SDS011;21661;50.794;-1.066;2023-05-10T05:21:42;22.38;;;5.70;;
35558;SDS011;21661;50.794;-1.066;2023-05-10T05:24:08;22.80;;;5.65;;
35558;SDS011;21661;50.794;-1.066;2023-05-10T05:26:35;20.42;;;5.90;;
35558;SDS011;21661;50.794;-1.066;2023-05-10T05:29:01;21.88;;;6.00;;
35558;SDS011;21661;50.794;-1.066;2023-05-10T05:31:27;21.00;;;5.95;;
35558;SDS011;21661;50.794;-1.066;2023-05-10T05:33:52;20.08;;;5.10;;
35558;SDS011;21661;50.794;-1.066;2023-05-10T05:36:18;19.50;;;5.45;;
35558;SDS011;21661;50.794;-1.066;2023-05-10T05:38:43;19.95;;;5.70;;
35558;SDS011;21661;50.794;-1.066;2023-05-10T05:41:09;20.60;;;4.82;;
35558;SDS011;21661;50.794;-1.066;2023-05-10T05:43:35;19.42;;;5.03;;
35558;SDS011;21661;50.794;-1.066;2023-05-10T05:46:01;19.90;;;4.95;;
35558;SDS011;21661;50.794;-1.066;2023-05-10T05:48:26;18.73;;;5.40;;
35558;SDS011;21661;50.794;-1.066;2023-05-10T05:50:55;18.27;;;4.65;;
35558;SDS011;21661;50.794;-1.066;2023-05-10T05:53:21;26.92;;;4.80;;
35558;SDS011;21661;50.794;-1.066;2023-05-10T05:55:50;16.30;;;4.85;;
35558;SDS011;21661;50.794;-1.066;2023-05-10T05:58:20;16.02;;;4.65;;
35558;SDS011;21661;50.794;-1.066;2023-05-10T06:00:46;21.13;;;6.10;;
35558;SDS011;21661;50.794;-1.066;2023-05-10T06:03:12;23.75;;;5.28;;
35558;SDS011;21661;50.794;-1.066;2023-05-10T06:05:38;27.13;;;5.60;;
35558;SDS011;21661;50.794;-1.066;2023-05-10T06:08:03;23.48;;;5.43;;
35558;SDS011;21661;50.794;-1.066;2023-05-10T06:10:29;19.30;;;5.82;;
35558;SDS011;21661;50.794;-1.066;2023-05-10T06:12:55;21.67;;;5.20;;
35558;SDS011;21661;50.794;-1.066;2023-05-10T06:15:21;29.30;;;5.50;;
35558;SDS011;21661;50.794;-1.066;2023-05-10T06:17:46;20.90;;;6.47;;
35558;SDS011;21661;50.794;-1.066;2023-05-10T06:20:14;24.20;;;5.63;;
35558;SDS011;21661;50.794;-1.066;2023-05-10T06:22:40;24.25;;;5.85;;
35558;SDS011;21661;50.794;-1.066;2023-05-10T06:25:06;22.88;;;5.20;;
35558;SDS011;21661;50.794;-1.066;2023-05-10T06:27:32;18.48;;;4.95;;
35558;SDS011;21661;50.794;-1.066;2023-05-10T06:29:58;26.17;;;6.18;;
35558;SDS011;21661;50.794;-1.066;2023-05-10T06:32:23;21.40;;;5.90;;
35558;SDS011;21661;50.794;-1.066;2023-05-10T06:34:49;32.05;;;6.32;;
35558;SDS011;21661;50.794;-1.066;2023-05-10T06:37:15;24.27;;;6.25;;
35558;SDS011;21661;50.794;-1.066;2023-05-10T06:39:40;26.38;;;6.47;;
35558;SDS011;21661;50.794;-1.066;2023-05-10T06:42:06;23.20;;;5.90;;
35558;SDS011;21661;50.794;-1.066;2023-05-10T06:44:31;24.90;;;6.07;;
35558;SDS011;21661;50.794;-1.066;2023-05-10T06:46:57;25.77;;;6.57;;
35558;SDS011;21661;50.794;-1.066;2023-05-10T06:49:23;25.33;;;6.03;;
35558;SDS011;21661;50.794;-1.066;2023-05-10T06:51:48;24.55;;;5.93;;
35558;SDS011;21661;50.794;-1.066;2023-05-10T06:54:14;26.58;;;6.60;;
35558;SDS011;21661;50.794;-1.066;2023-05-10T06:56:40;30.85;;;5.68;;
35558;SDS011;21661;50.794;-1.066;2023-05-10T06:59:05;27.90;;;6.15;;
35558;SDS011;21661;50.794;-1.066;2023-05-10T07:01:31;26.42;;;6.15;;
35558;SDS011;21661;50.794;-1.066;2023-05-10T07:03:57;26.50;;;6.25;;
35558;SDS011;21661;50.794;-1.066;2023-05-10T07:06:22;26.15;;;6.68;;
35558;SDS011;21661;50.794;-1.066;2023-05-10T07:08:48;25.95;;;6.00;;
35558;SDS011;21661;50.794;-1.066;2023-05-10T07:11:13;28.77;;;6.45;;
35558;SDS011;21661;50.794;-1.066;2023-05-10T07:13:39;29.48;;;5.85;;
35558;SDS011;21661;50.794;-1.066;2023-05-10T07:16:08;24.65;;;6.43;;
35558;SDS011;21661;50.794;-1.066;2023-05-10T07:18:35;20.95;;;5.30;;
35558;SDS011;21661;50.794;-1.066;2023-05-10T07:21:00;21.60;;;5.68;;
35558;SDS011;21661;50.794;-1.066;2023-05-10T07:23:26;26.55;;;5.75;;
35558;SDS011;21661;50.794;-1.066;2023-05-10T07:25:52;22.40;;;5.40;;
35558;SDS011;21661;50.794;-1.066;2023-05-10T07:28:18;18.67;;;5.93;;
35558;SDS011;21661;50.794;-1.066;2023-05-10T07:30:44;28.75;;;6.40;;
35558;SDS011;21661;50.794;-1.066;2023-05-10T07:33:12;37.42;;;5.65;;
35558;SDS011;21661;50.794;-1.066;2023-05-10T07:35:38;22.63;;;5.22;;
35558;SDS011;21661;50.794;-1.066;2023-05-10T07:38:04;21.33;;;5.32;;
35558;SDS011;21661;50.794;-1.066;2023-05-10T07:40:30;21.40;;;5.75;;
35558;SDS011;21661;50.794;-1.066;2023-05-10T07:42:55;20.70;;;5.40;;
35558;SDS011;21661;50.794;-1.066;2023-05-10T07:45:21;23.10;;;5.22;;
35558;SDS011;21661;50.794;-1.066;2023-05-10T07:47:48;30.80;;;5.65;;
35558;SDS011;21661;50.794;-1.066;2023-05-10T07:50:13;24.00;;;4.88;;
35558;SDS011;21661;50.794;-1.066;2023-05-10T07:52:39;21.10;;;4.70;;
35558;SDS011;21661;50.794;-1.066;2023-05-10T07:55:05;22.38;;;5.05;;
35558;SDS011;21661;50.794;-1.066;2023-05-10T07:57:32;15.88;;;4.70;;
35558;SDS011;21661;50.794;-1.066;2023-05-10T07:59:58;20.90;;;4.90;;
35558;SDS011;21661;50.794;-1.066;2023-05-10T08:02:24;20.05;;;5.93;;
35558;SDS011;21661;50.794;-1.066;2023-05-10T08:04:50;19.50;;;4.82;;
35558;SDS011;21661;50.794;-1.066;2023-05-10T08:07:16;21.25;;;4.60;;
35558;SDS011;21661;50.794;-1.066;2023-05-10T08:09:42;19.55;;;4.55;;
35558;SDS011;21661;50.794;-1.066;2023-05-10T08:12:08;15.85;;;4.30;;
35558;SDS011;21661;50.794;-1.066;2023-05-10T08:14:33;19.65;;;4.63;;
35558;SDS011;21661;50.794;-1.066;2023-05-10T08:17:01;20.52;;;3.50;;
35558;SDS011;21661;50.794;-1.066;2023-05-10T08:19:27;15.45;;;4.32;;
35558;SDS011;21661;50.794;-1.066;2023-05-10T08:21:53;18.70;;;3.55;;
35558;SDS011;21661;50.794;-1.066;2023-05-10T08:24:20;15.27;;;3.58;;
35558;SDS011;21661;50.794;-1.066;2023-05-10T08:26:46;17.30;;;3.33;;
35558;SDS011;21661;50.794;-1.066;2023-05-10T08:29:12;12.23;;;3.92;;
35558;SDS011;21661;50.794;-1.066;2023-05-10T08:31:38;20.00;;;3.78;;
35558;SDS011;21661;50.794;-1.066;2023-05-10T08:34:04;18.42;;;3.72;;
35558;SDS011;21661;50.794;-1.066;2023-05-10T08:36:30;13.48;;;3.22;;
35558;SDS011;21661;50.794;-1.066;2023-05-10T08:38:57;19.30;;;3.60;;
35558;SDS011;21661;50.794;-1.066;2023-05-10T08:41:23;14.57;;;3.47;;
35558;SDS011;21661;50.794;-1.066;2023-05-10T08:43:50;17.13;;;3.42;;
35558;SDS011;21661;50.794;-1.066;2023-05-10T08:46:18;14.57;;;3.65;;
35558;SDS011;21661;50.794;-1.066;2023-05-10T08:48:45;12.23;;;3.33;;
35558;SDS011;21661;50.794;-1.066;2023-05-10T08:51:17;15.32;;;3.50;;
35558;SDS011;21661;50.794;-1.066;2023-05-10T08:53:44;12.27;;;2.90;;
35558;SDS011;21661;50.794;-1.066;2023-05-10T08:56:10;20.33;;;3.58;;
35558;SDS011;21661;50.794;-1.066;2023-05-10T08:58:36;13.40;;;2.80;;
35558;SDS011;21661;50.794;-1.066;2023-05-10T09:01:02;14.73;;;3.10;;
35558;SDS011;21661;50.794;-1.066;2023-05-10T09:03:29;14.60;;;3.53;;
35558;SDS011;21661;50.794;-1.066;2023-05-10T09:05:56;11.48;;;3.13;;
35558;SDS011;21661;50.794;-1.066;2023-05-10T09:08:25;16.52;;;3.25;;
35558;SDS011;21661;50.794;-1.066;2023-05-10T09:10:51;11.02;;;3.15;;
35558;SDS011;21661;50.794;-1.066;2023-05-10T09:13:17;10.30;;;2.65;;
35558;SDS011;21661;50.794;-1.066;2023-05-10T09:15:44;11.30;;;2.63;;
35558;SDS011;21661;50.794;-1.066;2023-05-10T09:18:10;10.15;;;2.40;;
35558;SDS011;21661;50.794;-1.066;2023-05-10T09:20:36;12.20;;;2.58;;
35558;SDS011;21661;50.794;-1.066;2023-05-10T09:23:02;13.85;;;2.55;;
35558;SDS011;21661;50.794;-1.066;2023-05-10T09:25:27;15.20;;;2.30;;
35558;SDS011;21661;50.794;-1.066;2023-05-10T09:27:53;10.38;;;2.25;;
35558;SDS011;21661;50.794;-1.066;2023-05-10T09:30:23;10.50;;;2.85;;
35558;SDS011;21661;50.794;-1.066;2023-05-10T09:32:50;9.30;;;2.60;;
35558;SDS011;21661;50.794;-1.066;2023-05-10T09:35:17;9.55;;;2.10;;
35558;SDS011;21661;50.794;-1.066;2023-05-10T09:37:47;11.15;;;2.30;;
35558;SDS011;21661;50.794;-1.066;2023-05-10T09:40:19;9.45;;;2.70;;
35558;SDS011;21661;50.794;-1.066;2023-05-10T09:42:56;11.20;;;2.75;;
35558;SDS011;21661;50.794;-1.066;2023-05-10T09:45:24;12.10;;;2.22;;
35558;SDS011;21661;50.794;-1.066;2023-05-10T09:47:51;10.80;;;2.47;;
35558;SDS011;21661;50.794;-1.066;2023-05-10T09:50:16;9.73;;;2.03;;
35558;SDS011;21661;50.794;-1.066;2023-05-10T09:55:22;9.25;;;1.95;;
35558;SDS011;21661;50.794;-1.066;2023-05-10T09:57:58;9.43;;;1.90;;
35558;SDS011;21661;50.794;-1.066;2023-05-10T10:00:24;7.93;;;2.00;;
35558;SDS011;21661;50.794;-1.066;2023-05-10T10:02:54;8.02;;;1.80;;
35558;SDS011;21661;50.794;-1.066;2023-05-10T10:05:31;8.13;;;2.17;;
35558;SDS011;21661;50.794;-1.066;2023-05-10T10:07:58;10.32;;;1.95;;
35558;SDS011;21661;50.794;-1.066;2023-05-10T10:10:24;13.00;;;2.20;;
35558;SDS011;21661;50.794;-1.066;2023-05-10T10:12:51;12.07;;;1.92;;
35558;SDS011;21661;50.794;-1.066;2023-05-10T10:15:17;10.00;;;1.30;;
35558;SDS011;21661;50.794;-1.066;2023-05-10T10:17:43;9.30;;;1.90;;
35558;SDS011;21661;50.794;-1.066;2023-05-10T10:20:10;9.15;;;2.20;;
35558;SDS011;21661;50.794;-1.066;2023-05-10T10:22:36;8.38;;;1.98;;
35558;SDS011;21661;50.794;-1.066;2023-05-10T10:25:03;13.32;;;2.20;;
35558;SDS011;21661;50.794;-1.066;2023-05-10T10:27:43;7.40;;;2.08;;
35558;SDS011;21661;50.794;-1.066;2023-05-10T10:32:48;10.93;;;2.67;;
35558;SDS011;21661;50.794;-1.066;2023-05-10T10:35:33;8.07;;;2.30;;
35558;SDS011;21661;50.794;-1.066;2023-05-10T10:37:59;10.45;;;2.20;;
35558;SDS011;21661;50.794;-1.066;2023-05-10T10:40:29;6.20;;;1.70;;
35558;SDS011;21661;50.794;-1.066;2023-05-10T10:42:57;12.13;;;2.28;;
35558;SDS011;21661;50.794;-1.066;2023-05-10T10:45:23;9.07;;;2.15;;
35558;SDS011;21661;50.794;-1.066;2023-05-10T10:50:47;12.52;;;2.13;;
35558;SDS011;21661;50.794;-1.066;2023-05-10T10:53:20;8.32;;;2.50;;
35558;SDS011;21661;50.794;-1.066;2023-05-10T10:55:46;12.07;;;2.42;;
35558;SDS011;21661;50.794;-1.066;2023-05-10T10:58:28;9.65;;;1.92;;
35558;SDS011;21661;50.794;-1.066;2023-05-10T11:01:15;11.02;;;2.08;;
35558;SDS011;21661;50.794;-1.066;2023-05-10T11:04:16;10.98;;;2.20;;
35558;SDS011;21661;50.794;-1.066;2023-05-10T11:09:09;13.55;;;2.55;;
35558;SDS011;21661;50.794;-1.066;2023-05-10T11:11:37;13.93;;;2.85;;
35558;SDS011;21661;50.794;-1.066;2023-05-10T11:14:18;6.28;;;2.10;;
35558;SDS011;21661;50.794;-1.066;2023-05-10T11:16:46;9.23;;;2.75;;
35558;SDS011;21661;50.794;-1.066;2023-05-10T11:19:13;7.63;;;2.10;;
35558;SDS011;21661;50.794;-1.066;2023-05-10T11:24:30;11.13;;;2.80;;
35558;SDS011;21661;50.794;-1.066;2023-05-10T11:26:56;8.70;;;2.10;;
35558;SDS011;21661;50.794;-1.066;2023-05-10T11:29:22;6.47;;;1.98;;
35558;SDS011;21661;50.794;-1.066;2023-05-10T11:31:48;7.20;;;2.22;;
35558;SDS011;21661;50.794;-1.066;2023-05-10T11:34:24;10.38;;;2.65;;
35558;SDS011;21661;50.794;-1.066;2023-05-10T11:36:51;6.68;;;2.17;;
35558;SDS011;21661;50.794;-1.066;2023-05-10T11:39:18;18.33;;;2.67;;
35558;SDS011;21661;50.794;-1.066;2023-05-10T11:41:46;6.00;;;1.98;;
35558;SDS011;21661;50.794;-1.066;2023-05-10T11:44:13;7.13;;;1.92;;
35558;SDS011;21661;50.794;-1.066;2023-05-10T11:46:39;8.27;;;2.50;;
35558;SDS011;21661;50.794;-1.066;2023-05-10T11:49:05;7.40;;;2.30;;
35558;SDS011;21661;50.794;-1.066;2023-05-10T11:51:35;6.60;;;2.55;;
35558;SDS011;21661;50.794;-1.066;2023-05-10T11:54:02;6.97;;;2.03;;
35558;SDS011;21661;50.794;-1.066;2023-05-10T11:56:32;3.33;;;1.55;;
35558;SDS011;21661;50.794;-1.066;2023-05-10T11:58:58;7.85;;;1.67;;
35558;SDS011;21661;50.794;-1.066;2023-05-10T12:01:25;9.80;;;1.80;;
35558;SDS011;21661;50.794;-1.066;2023-05-10T12:03:52;7.70;;;1.50;;
35558;SDS011;21661;50.794;-1.066;2023-05-10T12:06:20;6.97;;;1.63;;
35558;SDS011;21661;50.794;-1.066;2023-05-10T12:08:47;7.10;;;2.17;;
35558;SDS011;21661;50.794;-1.066;2023-05-10T12:11:17;7.22;;;1.80;;
35558;SDS011;21661;50.794;-1.066;2023-05-10T12:13:43;7.55;;;1.85;;
35558;SDS011;21661;50.794;-1.066;2023-05-10T12:18:42;5.07;;;1.33;;
35558;SDS011;21661;50.794;-1.066;2023-05-10T12:21:09;6.65;;;2.03;;
35558;SDS011;21661;50.794;-1.066;2023-05-10T12:23:36;7.82;;;1.92;;
35558;SDS011;21661;50.794;-1.066;2023-05-10T12:26:02;10.90;;;2.08;;
35558;SDS011;21661;50.794;-1.066;2023-05-10T12:28:32;8.65;;;2.40;;
35558;SDS011;21661;50.794;-1.066;2023-05-10T12:31:01;12.07;;;2.47;;
35558;SDS011;21661;50.794;-1.066;2023-05-10T12:33:35;11.63;;;2.70;;
35558;SDS011;21661;50.794;-1.066;2023-05-10T12:36:03;9.38;;;2.22;;
35558;SDS011;21661;50.794;-1.066;2023-05-10T12:38:32;11.48;;;2.63;;
35558;SDS011;21661;50.794;-1.066;2023-05-10T12:40:59;9.15;;;2.22;;
35558;SDS011;21661;50.794;-1.066;2023-05-10T12:43:26;7.07;;;2.10;;
35558;SDS011;21661;50.794;-1.066;2023-05-10T12:45:52;8.98;;;2.30;;
35558;SDS011;21661;50.794;-1.066;2023-05-10T12:48:18;8.48;;;2.28;;
35558;SDS011;21661;50.794;-1.066;2023-05-10T12:50:43;13.88;;;2.58;;
35558;SDS011;21661;50.794;-1.066;2023-05-10T12:53:09;8.05;;;1.90;;
35558;SDS011;21661;50.794;-1.066;2023-05-10T12:55:34;9.32;;;2.42;;
35558;SDS011;21661;50.794;-1.066;2023-05-10T12:58:00;8.52;;;2.15;;
35558;SDS011;21661;50.794;-1.066;2023-05-10T13:00:26;7.43;;;2.10;;
35558;SDS011;21661;50.794;-1.066;2023-05-10T13:02:51;8.40;;;2.42;;
35558;SDS011;21661;50.794;-1.066;2023-05-10T13:05:18;7.68;;;2.47;;
35558;SDS011;21661;50.794;-1.066;2023-05-10T13:07:43;10.73;;;2.22;;
35558;SDS011;21661;50.794;-1.066;2023-05-10T13:10:09;9.57;;;2.15;;
35558;SDS011;21661;50.794;-1.066;2023-05-10T13:12:35;13.13;;;2.40;;
35558;SDS011;21661;50.794;-1.066;2023-05-10T13:15:01;10.95;;;2.63;;
35558;SDS011;21661;50.794;-1.066;2023-05-10T13:17:28;14.30;;;2.80;;
35558;SDS011;21661;50.794;-1.066;2023-05-10T13:19:54;10.82;;;2.38;;
35558;SDS011;21661;50.794;-1.066;2023-05-10T13:22:19;13.20;;;2.08;;
35558;SDS011;21661;50.794;-1.066;2023-05-10T13:24:45;11.73;;;2.72;;
35558;SDS011;21661;50.794;-1.066;2023-05-10T13:27:10;12.02;;;2.42;;
35558;SDS011;21661;50.794;-1.066;2023-05-10T13:29:36;15.35;;;2.80;;
35558;SDS011;21661;50.794;-1.066;2023-05-10T13:32:02;16.13;;;2.85;;
35558;SDS011;21661;50.794;-1.066;2023-05-10T13:34:27;10.75;;;2.13;;
35558;SDS011;21661;50.794;-1.066;2023-05-10T13:36:53;14.13;;;2.72;;
35558;SDS011;21661;50.794;-1.066;2023-05-10T13:39:20;11.07;;;2.03;;
35558;SDS011;21661;50.794;-1.066;2023-05-10T13:41:46;12.50;;;2.50;;
35558;SDS011;21661;50.794;-1.066;2023-05-10T13:44:12;14.77;;;3.35;;
35558;SDS011;21661;50.794;-1.066;2023-05-10T13:46:39;15.45;;;2.78;;
35558;SDS011;21661;50.794;-1.066;2023-05-10T13:49:05;18.55;;;3.55;;
35558;SDS011;21661;50.794;-1.066;2023-05-10T13:51:31;14.05;;;2.50;;
35558;SDS011;21661;50.794;-1.066;2023-05-10T13:53:58;11.30;;;2.28;;
35558;SDS011;21661;50.794;-1.066;2023-05-10T13:56:23;14.02;;;2.30;;
35558;SDS011;21661;50.794;-1.066;2023-05-10T13:58:49;11.73;;;2.80;;
35558;SDS011;21661;50.794;-1.066;2023-05-10T14:01:15;15.88;;;3.10;;
35558;SDS011;21661;50.794;-1.066;2023-05-10T14:03:40;12.60;;;2.40;;
35558;SDS011;21661;50.794;-1.066;2023-05-10T14:06:06;9.18;;;2.47;;
35558;SDS011;21661;50.794;-1.066;2023-05-10T14:08:33;11.98;;;2.40;;
35558;SDS011;21661;50.794;-1.066;2023-05-10T14:10:59;9.52;;;2.70;;
35558;SDS011;21661;50.794;-1.066;2023-05-10T14:13:25;13.90;;;2.50;;
35558;SDS011;21661;50.794;-1.066;2023-05-10T14:15:50;11.93;;;2.40;;
35558;SDS011;21661;50.794;-1.066;2023-05-10T14:18:17;7.93;;;1.85;;
35558;SDS011;21661;50.794;-1.066;2023-05-10T14:20:43;6.93;;;1.77;;
35558;SDS011;21661;50.794;-1.066;2023-05-10T14:23:08;5.20;;;1.27;;
35558;SDS011;21661;50.794;-1.066;2023-05-10T14:25:34;7.55;;;1.60;;
35558;SDS011;21661;50.794;-1.066;2023-05-10T14:28:00;5.38;;;1.65;;
35558;SDS011;21661;50.794;-1.066;2023-05-10T14:30:31;11.32;;;2.35;;
35558;SDS011;21661;50.794;-1.066;2023-05-10T14:32:59;7.28;;;1.52;;
35558;SDS011;21661;50.794;-1.066;2023-05-10T14:35:26;6.78;;;1.63;;
35558;SDS011;21661;50.794;-1.066;2023-05-10T14:37:52;3.92;;;1.48;;
35558;SDS011;21661;50.794;-1.066;2023-05-10T14:40:18;4.25;;;1.30;;
35558;SDS011;21661;50.794;-1.066;2023-05-10T14:42:43;9.65;;;1.73;;
35558;SDS011;21661;50.794;-1.066;2023-05-10T14:45:09;10.50;;;1.70;;
35558;SDS011;21661;50.794;-1.066;2023-05-10T14:47:35;8.82;;;1.80;;
35558;SDS011;21661;50.794;-1.066;2023-05-10T14:50:01;9.88;;;1.60;;
35558;SDS011;21661;50.794;-1.066;2023-05-10T14:52:27;14.35;;;1.83;;
35558;SDS011;21661;50.794;-1.066;2023-05-10T14:54:52;10.60;;;2.38;;